Terminal Aerodrome Forecast
Issued by NWS

Home | Current Version | Previous Version | Text Only | Print | Product List | Glossary On
Versions: 1 2 3 4 5 6 7 8 9 10 11 12 13 14 15
180
FTUS46 KSTO 110541
TAFSCK
TAF
KSCK 110541Z 1106/1206 VRB04KT P6SM SKC
     FM110800 VRB02KT 4SM BR SKC
     FM111100 00000KT 2SM BR BCFG SCT002
      TEMPO 1112/1116 1/4SM FG VV001
     FM112100 29005KT P6SM SKC=

USA.gov is the U.S. government's official web portal to all federal, state and local government web resources and services.